Terminal Aerodrome Forecast
Issued by NWS Wichita, KS

Home | Current Version | Previous Version | Graphics & Text | Print | Product List | Glossary On
Versions: 1 2 3 4 5 6 7 8 9 10 11 12 13 14 15 16 17
000
FTUS43 KICT 151100
TAFICT
TAF
KICT 151137Z 1512/1612 19012KT P6SM BKN200
     FM151500 23013KT P6SM SCT120 BKN200
     FM151900 01014KT P6SM VCSH BKN030
     FM160000 04012KT P6SM VCSH OVC018
     FM160600 08010KT P6SM OVC013=

USA.gov is the U.S. government's official web portal to all federal, state and local government web resources and services.